createdAt,value
2022-11-14T00:03:06.835Z,100
2022-11-14T00:08:04.899Z,100
2022-11-14T00:13:03.129Z,100
2022-11-14T00:18:01.190Z,100
2022-11-14T00:22:59.093Z,100
2022-11-14T00:27:57.185Z,100
2022-11-14T00:32:55.265Z,100
2022-11-14T00:37:53.729Z,100
2022-11-14T00:42:52.019Z,100
2022-11-14T00:47:50.479Z,100
2022-11-14T00:52:48.546Z,100
2022-11-14T00:57:46.363Z,100
2022-11-14T01:02:44.839Z,100
2022-11-14T01:07:42.817Z,100
2022-11-14T01:12:41.041Z,100
2022-11-14T01:17:39.098Z,100
2022-11-14T01:22:37.329Z,100
2022-11-14T01:27:35.578Z,100
2022-11-14T01:32:33.849Z,100
2022-11-14T01:37:32.033Z,100
2022-11-14T01:42:30.232Z,100
2022-11-14T01:47:28.322Z,100
2022-11-14T01:52:26.365Z,100
2022-11-14T01:57:24.471Z,100
2022-11-14T02:02:22.528Z,100
2022-11-14T02:07:20.784Z,100
2022-11-14T02:12:18.718Z,100
2022-11-14T02:17:32.194Z,100
2022-11-14T02:22:15.272Z,100
2022-11-14T02:27:13.543Z,100
2022-11-14T02:32:11.796Z,100
2022-11-14T02:37:09.644Z,100
2022-11-14T02:42:07.781Z,100
2022-11-14T02:47:05.819Z,100
2022-11-14T02:52:04.015Z,100
2022-11-14T02:57:02.688Z,100
2022-11-14T03:02:00.796Z,100
2022-11-14T03:06:58.852Z,100
2022-11-14T03:11:57.335Z,100
2022-11-14T03:16:55.145Z,100
2022-11-14T03:21:53.059Z,100
2022-11-14T03:26:51.141Z,100
2022-11-14T03:31:49.449Z,100
2022-11-14T03:36:47.536Z,100
2022-11-14T03:41:45.828Z,100
2022-11-14T03:46:44.007Z,100
2022-11-14T03:51:42.231Z,100
2022-11-14T03:56:40.344Z,100
2022-11-14T04:01:39.075Z,100
2022-11-14T04:06:37.519Z,100
2022-11-14T04:11:35.893Z,100
2022-11-14T04:16:34.260Z,100
2022-11-14T04:21:32.633Z,100
2022-11-14T04:26:30.898Z,100
2022-11-14T04:31:29.291Z,100
2022-11-14T04:36:27.357Z,100
2022-11-14T04:41:25.700Z,100
2022-11-14T04:46:23.947Z,100
2022-11-14T04:51:22.209Z,100
2022-11-14T04:56:20.494Z,100
2022-11-14T05:01:18.839Z,100
2022-11-14T05:06:17.076Z,100
2022-11-14T05:11:15.189Z,100
2022-11-14T05:16:13.218Z,100
2022-11-14T05:21:11.357Z,100
2022-11-14T05:26:09.647Z,100
2022-11-14T05:31:07.935Z,100
2022-11-14T05:36:06.249Z,100
2022-11-14T05:41:04.452Z,100
2022-11-14T05:46:02.532Z,100
2022-11-14T05:51:00.953Z,100
2022-11-14T05:55:59.296Z,100
2022-11-14T06:00:57.723Z,100
2022-11-14T06:05:56.008Z,100
2022-11-14T06:10:54.150Z,100
2022-11-14T06:15:52.724Z,100
2022-11-14T06:20:51.285Z,100
2022-11-14T06:25:49.720Z,100
2022-11-14T06:30:48.076Z,100
2022-11-14T06:35:46.625Z,99.1
2022-11-14T06:40:45.172Z,98.2
2022-11-14T06:45:43.705Z,97.5
2022-11-14T06:50:42.094Z,96.5
2022-11-14T06:55:40.966Z,95.6
2022-11-14T07:00:39.769Z,94.2
2022-11-14T07:05:38.358Z,93.1
2022-11-14T07:10:36.955Z,92.5
2022-11-14T07:15:35.609Z,91.7
2022-11-14T07:20:34.539Z,90.4
2022-11-14T07:25:33.312Z,89.4
2022-11-14T07:30:32.111Z,88.5
2022-11-14T07:35:30.920Z,87.3
2022-11-14T07:40:29.742Z,86.5
2022-11-14T07:45:27.850Z,86.2
2022-11-14T07:50:26.300Z,85.9
2022-11-14T07:55:24.912Z,84.9
2022-11-14T08:00:23.555Z,83.9
2022-11-14T08:05:22.113Z,83.6
2022-11-14T08:10:21.403Z,82.1
2022-11-14T08:15:19.960Z,81.1
2022-11-14T08:20:18.708Z,79.8
2022-11-14T08:25:16.907Z,79.5
2022-11-14T08:30:15.426Z,78.7
2022-11-14T08:35:13.889Z,77.4
2022-11-14T08:40:12.448Z,75.9
2022-11-14T08:45:11.123Z,75.6
2022-11-14T08:50:09.514Z,75.9
2022-11-14T08:55:08.786Z,73.3
2022-11-14T09:00:08.213Z,71.8
2022-11-14T09:05:07.119Z,71.5
2022-11-14T09:10:06.042Z,70.1
2022-11-14T09:15:05.237Z,67.7
2022-11-14T09:20:03.467Z,67.2
2022-11-14T09:25:02.335Z,64.7
2022-11-14T09:30:02.118Z,61.1
2022-11-14T09:35:00.958Z,59.9
2022-11-14T09:40:00.146Z,58.2
2022-11-14T09:44:59.037Z,56.3
2022-11-14T09:50:01.926Z,52.1
2022-11-14T09:55:02.789Z,48
2022-11-14T10:00:02.728Z,45.2
2022-11-14T10:05:02.242Z,43.1
2022-11-14T10:10:01.174Z,42
2022-11-14T10:14:59.683Z,40.9
2022-11-14T10:19:58.036Z,40.3
2022-11-14T10:24:56.240Z,39.2
2022-11-14T10:29:54.586Z,39.3
2022-11-14T10:34:52.673Z,39
2022-11-14T10:39:50.364Z,38.8
2022-11-14T10:44:48.779Z,37
2022-11-14T10:49:46.701Z,37.1
2022-11-14T10:54:44.210Z,37.7
2022-11-14T10:59:40.743Z,39.2
2022-11-14T11:04:37.394Z,41.1
2022-11-14T11:09:34.048Z,44.1
2022-11-14T11:14:31.343Z,45.6
2022-11-14T11:19:29.515Z,47.8
2022-11-14T11:24:27.537Z,48.2
2022-11-14T11:29:25.235Z,50.2
2022-11-14T11:34:22.648Z,52.9
2022-11-14T11:39:20.143Z,54.7
2022-11-14T11:44:18.122Z,54.7
2022-11-14T11:49:16.581Z,53.7
2022-11-14T11:54:14.764Z,52.6
2022-11-14T11:59:13.107Z,53.2
2022-11-14T12:04:11.691Z,51.9
2022-11-14T12:09:10.044Z,50.3
2022-11-14T12:14:07.968Z,48.9
2022-11-14T12:19:06.101Z,49.2
2022-11-14T12:24:04.067Z,49.8
2022-11-14T12:29:02.186Z,49.6
2022-11-14T12:34:00.291Z,49.1
2022-11-14T12:38:58.414Z,49.2
2022-11-14T12:43:56.540Z,48.8
2022-11-14T12:48:54.203Z,49.4
2022-11-14T12:53:52.145Z,49.3
2022-11-14T12:58:49.898Z,49.6
2022-11-14T13:03:47.143Z,52.5
2022-11-14T13:08:44.358Z,54.7
2022-11-14T13:13:42.001Z,58.1
2022-11-14T13:18:39.352Z,63.5
2022-11-14T13:23:36.651Z,67.4
2022-11-14T13:28:34.301Z,69.7
2022-11-14T13:33:32.160Z,72
2022-11-14T13:38:29.717Z,74.7
2022-11-14T13:43:27.996Z,75.6
2022-11-14T13:48:25.655Z,76.2
2022-11-14T13:53:23.770Z,75.1
2022-11-14T13:58:22.228Z,75.3
2022-11-14T14:03:20.421Z,78.6
2022-11-14T14:08:18.438Z,79.6
2022-11-14T14:13:16.665Z,79
2022-11-14T14:18:14.580Z,81.1
2022-11-14T14:23:13.095Z,81.9
2022-11-14T14:28:11.405Z,82
2022-11-14T14:33:09.288Z,84.4
2022-11-14T14:38:07.292Z,84.2
2022-11-14T14:43:05.301Z,85.5
2022-11-14T14:48:03.418Z,87
2022-11-14T14:53:01.443Z,86.6
2022-11-14T14:57:59.741Z,87.2
2022-11-14T15:02:57.779Z,88
2022-11-14T15:07:56.310Z,89.6
2022-11-14T15:12:54.039Z,90.3
2022-11-14T15:17:51.909Z,91.4
2022-11-14T15:22:50.037Z,91.9
2022-11-14T15:27:48.301Z,92.9
2022-11-14T15:32:46.214Z,93.4
2022-11-14T15:37:44.264Z,94
2022-11-14T15:42:42.434Z,94.5
2022-11-14T15:47:40.777Z,95.2
2022-11-14T15:52:38.869Z,95.5
2022-11-14T15:57:36.958Z,96.6
2022-11-14T16:02:35.207Z,96.6
2022-11-14T16:07:34.529Z,97.1
2022-11-14T16:12:32.620Z,97.5
2022-11-14T16:17:30.963Z,98.1
2022-11-14T16:22:29.177Z,98.5
2022-11-14T16:27:27.221Z,98.6
2022-11-14T16:32:25.317Z,99.1
2022-11-14T16:37:23.540Z,99
2022-11-14T16:42:21.721Z,99.2
2022-11-14T16:47:19.851Z,99.7
2022-11-14T16:52:17.881Z,99.9
2022-11-14T16:57:16.171Z,99.9
2022-11-14T17:02:14.415Z,100
2022-11-14T17:07:12.576Z,100
2022-11-14T17:12:10.823Z,100
2022-11-14T17:17:08.840Z,100
2022-11-14T17:22:06.872Z,100
2022-11-14T17:27:04.880Z,100
2022-11-14T17:32:03.557Z,100
2022-11-14T17:37:01.622Z,100
2022-11-14T17:41:59.875Z,100
2022-11-14T17:46:58.651Z,100
2022-11-14T17:51:56.833Z,100
2022-11-14T17:56:55.247Z,100
2022-11-14T18:01:53.230Z,100
2022-11-14T18:06:51.435Z,100
2022-11-14T18:11:49.656Z,100
2022-11-14T18:17:10.896Z,100
2022-11-14T18:21:50.612Z,100
2022-11-14T18:26:44.125Z,100
2022-11-14T18:31:42.296Z,100
2022-11-14T18:36:40.175Z,100
2022-11-14T18:41:38.264Z,100
2022-11-14T18:46:37.651Z,100
2022-11-14T18:51:34.484Z,100
2022-11-14T18:56:32.829Z,100
2022-11-14T19:01:31.363Z,100
2022-11-14T19:06:29.398Z,100
2022-11-14T19:11:27.753Z,100
2022-11-14T19:16:26.029Z,100
2022-11-14T19:21:24.194Z,100
2022-11-14T19:26:22.401Z,100
2022-11-14T19:31:20.479Z,100
2022-11-14T19:36:27.784Z,100
2022-11-14T19:41:16.855Z,100
2022-11-14T19:46:15.147Z,100
2022-11-14T19:51:13.262Z,100
2022-11-14T19:56:11.506Z,100
2022-11-14T20:01:09.807Z,100
2022-11-14T20:06:07.806Z,100
2022-11-14T20:11:05.873Z,100
2022-11-14T20:16:04.272Z,100
2022-11-14T20:21:02.283Z,100
2022-11-14T20:26:00.545Z,100
2022-11-14T20:30:58.592Z,100
2022-11-14T20:35:56.774Z,100
2022-11-14T20:40:54.759Z,100
2022-11-14T20:45:52.953Z,100
2022-11-14T20:50:50.787Z,100
2022-11-14T20:55:48.820Z,100
2022-11-14T21:00:47.036Z,100
2022-11-14T21:05:45.176Z,100
2022-11-14T21:10:43.063Z,100
2022-11-14T21:15:41.382Z,100
2022-11-14T21:20:39.526Z,100
2022-11-14T21:25:37.677Z,100
2022-11-14T21:30:35.732Z,100
2022-11-14T21:35:33.814Z,100
2022-11-14T21:40:31.829Z,100
2022-11-14T21:45:29.854Z,100
2022-11-14T21:50:27.992Z,100
2022-11-14T21:55:26.125Z,100
2022-11-14T22:00:24.093Z,100
2022-11-14T22:05:22.065Z,100
2022-11-14T22:10:20.026Z,100
2022-11-14T22:15:18.086Z,100
2022-11-14T22:20:16.235Z,100
2022-11-14T22:25:14.324Z,100
2022-11-14T22:30:12.505Z,100
2022-11-14T22:35:10.510Z,100
2022-11-14T22:40:08.641Z,100
2022-11-14T22:45:06.785Z,100
2022-11-14T22:50:04.906Z,100
2022-11-14T22:55:03.042Z,100
2022-11-14T23:00:01.188Z,100
2022-11-14T23:04:59.439Z,100
2022-11-14T23:09:57.870Z,100
2022-11-14T23:14:55.986Z,100
2022-11-14T23:19:54.577Z,100
2022-11-14T23:24:52.649Z,100
2022-11-14T23:29:50.749Z,100
2022-11-14T23:34:48.891Z,100
2022-11-14T23:39:46.866Z,100
2022-11-14T23:44:45.039Z,100
2022-11-14T23:49:43.183Z,100
2022-11-14T23:54:41.188Z,100
2022-11-14T23:59:39.353Z,100
